< < Back
Terminal Aerodrome Forecast


Current Version              Previous Versions:   1  2  3  4  5  6  7  8  9  

Terminal Aerodrome Forecast

298
FTUS44 KMOB 011700 RRA
TAFMOB
TAF
KMOB 011753Z 0118/0218 14006KT 2SM RA BR BKN035 BKN045 OVC070
     FM012100 21012KT 5SM BR BKN050
     FM012300 20009KT 3SM SHRA BKN035 BKN050
     FM020600 26010KT 4SM BR OVC007=

Latest METAR

528
SAUS80 KWBC 012200 RRJ
MTRMOB
METAR KMOB 012156Z 21011KT 10SM OVC012 19/18 A2991 RMK AO2 SLP127
T01890178 $


USA.gov is the U.S. government's official web portal to all federal, state and local government web resources and services.